createdAt,value
2019-03-31T00:01:11.735Z,27.67
2019-03-31T00:03:39.390Z,28.73
2019-03-31T00:06:07.091Z,22.37
2019-03-31T00:08:34.992Z,25.20
2019-03-31T00:11:02.660Z,24.90
2019-03-31T00:13:30.315Z,24.10
2019-03-31T00:15:57.968Z,27.10
2019-03-31T00:18:25.649Z,23.13
2019-03-31T00:20:53.293Z,27.17
2019-03-31T00:23:20.942Z,24.63
2019-03-31T00:25:51.504Z,29.70
2019-03-31T00:28:19.303Z,25.30
2019-03-31T00:30:46.980Z,27.90
2019-03-31T00:33:14.645Z,25.70
2019-03-31T00:35:42.295Z,26.33
2019-03-31T00:38:09.951Z,28.43
2019-03-31T00:40:37.626Z,25.10
2019-03-31T00:43:05.280Z,24.97
2019-03-31T00:45:32.935Z,25.40
2019-03-31T00:48:00.622Z,26.50
2019-03-31T00:50:28.315Z,29.77
2019-03-31T00:52:55.987Z,28.33
2019-03-31T00:55:23.675Z,25.40
2019-03-31T00:57:51.340Z,22.87
2019-03-31T01:00:38.047Z,25.37
2019-03-31T01:03:05.875Z,25.00
2019-03-31T01:05:33.817Z,29.40
2019-03-31T01:08:01.461Z,25.93
2019-03-31T01:10:29.120Z,26.20
2019-03-31T01:12:56.802Z,30.17
2019-03-31T01:15:25.276Z,26.60
2019-03-31T01:17:52.957Z,25.40
2019-03-31T01:20:20.619Z,27.37
2019-03-31T01:22:48.266Z,24.43
2019-03-31T01:25:16.614Z,25.53
2019-03-31T01:27:44.440Z,28.80
2019-03-31T01:30:13.230Z,28.53
2019-03-31T01:32:41.424Z,26.50
2019-03-31T01:35:10.292Z,27.67
2019-03-31T01:37:37.983Z,27.73
2019-03-31T01:40:05.720Z,25.13
2019-03-31T01:42:33.371Z,26.20
2019-03-31T01:45:01.033Z,28.13
2019-03-31T01:47:28.713Z,27.33
2019-03-31T01:49:56.380Z,27.73
2019-03-31T01:52:24.034Z,26.53
2019-03-31T01:54:51.713Z,29.30
2019-03-31T01:57:19.487Z,29.10
2019-03-31T01:59:47.171Z,26.80
2019-03-31T02:02:20.572Z,26.27
2019-03-31T02:04:48.257Z,31.17
2019-03-31T02:07:15.907Z,24.87
2019-03-31T02:09:43.568Z,28.03
2019-03-31T02:12:11.271Z,30.63
2019-03-31T02:14:39.007Z,29.70
2019-03-31T02:17:06.678Z,26.93
2019-03-31T02:19:34.335Z,31.43
2019-03-31T02:22:01.987Z,30.13
2019-03-31T02:24:29.636Z,28.37
2019-03-31T02:26:57.296Z,30.27
2019-03-31T02:29:24.943Z,30.97
2019-03-31T02:31:52.722Z,28.70
2019-03-31T02:34:20.443Z,29.87
2019-03-31T02:36:48.117Z,27.77
2019-03-31T02:39:15.867Z,24.93
2019-03-31T02:41:43.541Z,29.03
2019-03-31T02:44:11.187Z,31.17
2019-03-31T02:46:38.851Z,27.60
2019-03-31T02:49:06.528Z,32.77
2019-03-31T02:51:34.194Z,33.40
2019-03-31T02:54:01.851Z,26.03
2019-03-31T02:56:29.508Z,29.90
2019-03-31T02:58:57.163Z,29.30
2019-03-31T03:01:24.824Z,29.13
2019-03-31T03:03:52.471Z,28.83
2019-03-31T03:06:20.189Z,25.30
2019-03-31T03:08:47.849Z,29.50
2019-03-31T03:11:15.568Z,23.50
2019-03-31T03:13:43.225Z,28.87
2019-03-31T03:16:10.877Z,24.83
2019-03-31T03:18:38.532Z,27.53
2019-03-31T03:21:06.189Z,27.80
2019-03-31T03:23:33.834Z,29.10
2019-03-31T03:26:01.493Z,34.70
2019-03-31T03:28:29.142Z,29.20
2019-03-31T03:30:56.916Z,27.80
2019-03-31T03:33:24.944Z,31.83
2019-03-31T03:35:52.608Z,30.20
2019-03-31T03:38:20.283Z,33.30
2019-03-31T03:40:48.077Z,30.77
2019-03-31T03:43:15.780Z,27.53
2019-03-31T03:45:43.440Z,31.40
2019-03-31T03:48:11.145Z,29.73
2019-03-31T03:50:38.858Z,33.43
2019-03-31T03:53:06.541Z,31.63
2019-03-31T03:55:34.225Z,32.83
2019-03-31T03:58:01.872Z,30.23
2019-03-31T04:00:29.536Z,30.63
2019-03-31T04:02:57.185Z,31.13
2019-03-31T04:05:24.849Z,28.83
2019-03-31T04:07:52.511Z,29.63
2019-03-31T04:10:20.333Z,33.80
2019-03-31T04:12:47.988Z,30.33
2019-03-31T04:15:15.644Z,32.43
2019-03-31T04:17:43.307Z,28.67
2019-03-31T04:20:10.959Z,30.70
2019-03-31T04:22:38.619Z,30.60
2019-03-31T04:25:06.301Z,31.07
2019-03-31T04:27:33.969Z,30.70
2019-03-31T04:30:01.769Z,32.43
2019-03-31T04:32:29.490Z,30.20
2019-03-31T04:34:57.258Z,32.57
2019-03-31T04:37:25.028Z,27.67
2019-03-31T04:39:52.684Z,29.90
2019-03-31T04:42:20.349Z,33.17
2019-03-31T04:44:48.019Z,34.60
2019-03-31T04:47:15.696Z,32.73
2019-03-31T04:49:43.368Z,33.10
2019-03-31T04:52:11.106Z,30.47
2019-03-31T04:54:38.763Z,34.63
2019-03-31T04:57:06.607Z,32.50
2019-03-31T04:59:34.267Z,27.47
2019-03-31T05:02:01.926Z,34.03
2019-03-31T05:04:29.593Z,32.57
2019-03-31T05:06:57.262Z,36.47
2019-03-31T05:09:24.918Z,34.90
2019-03-31T05:11:52.961Z,34.53
2019-03-31T05:14:20.596Z,36.57
2019-03-31T05:16:48.255Z,31.93
2019-03-31T05:19:15.915Z,32.63
2019-03-31T05:21:43.583Z,29.13
2019-03-31T05:24:11.262Z,32.90
2019-03-31T05:26:38.929Z,27.90
2019-03-31T05:29:06.594Z,32.13
2019-03-31T05:31:34.275Z,34.87
2019-03-31T05:34:01.933Z,33.60
2019-03-31T05:36:29.587Z,29.83
2019-03-31T05:38:57.253Z,36.20
2019-03-31T05:41:25.048Z,30.77
2019-03-31T05:44:05.094Z,30.07
2019-03-31T05:46:22.164Z,29.03
2019-03-31T05:48:49.819Z,30.47
2019-03-31T05:51:17.493Z,33.20
2019-03-31T05:53:45.143Z,28.87
2019-03-31T05:56:12.815Z,30.47
2019-03-31T05:58:40.479Z,30.30
2019-03-31T06:01:08.131Z,29.00
2019-03-31T06:03:35.784Z,30.40
2019-03-31T06:06:03.449Z,29.00
2019-03-31T06:08:31.149Z,29.03
2019-03-31T06:10:58.795Z,30.83
2019-03-31T06:13:26.452Z,31.23
2019-03-31T06:15:54.123Z,29.43
2019-03-31T06:18:21.782Z,32.77
2019-03-31T06:20:49.438Z,29.80
2019-03-31T06:23:17.092Z,28.60
2019-03-31T06:25:44.744Z,32.30
2019-03-31T06:28:12.405Z,31.77
2019-03-31T06:30:40.064Z,32.77
2019-03-31T06:33:07.735Z,33.80
2019-03-31T06:35:35.388Z,30.30
2019-03-31T06:38:03.050Z,28.37
2019-03-31T06:40:30.719Z,30.77
2019-03-31T06:42:58.395Z,29.60
2019-03-31T06:45:26.036Z,26.90
2019-03-31T06:47:53.689Z,30.10
2019-03-31T06:50:21.365Z,29.00
2019-03-31T06:52:49.022Z,33.43
2019-03-31T06:55:16.675Z,29.83
2019-03-31T06:57:44.335Z,28.93
2019-03-31T07:00:12.056Z,30.87
2019-03-31T07:02:39.721Z,26.80
2019-03-31T07:05:07.455Z,31.20
2019-03-31T07:07:35.141Z,31.07
2019-03-31T07:10:02.812Z,28.90
2019-03-31T07:12:30.489Z,28.67
2019-03-31T07:14:58.153Z,29.50
2019-03-31T07:17:25.815Z,31.10
2019-03-31T07:19:53.474Z,27.73
2019-03-31T07:22:24.233Z,29.80
2019-03-31T07:24:50.520Z,30.63
2019-03-31T07:27:18.165Z,29.47
2019-03-31T07:29:45.828Z,27.33
2019-03-31T07:32:13.492Z,27.97
2019-03-31T07:34:41.153Z,27.23
2019-03-31T07:37:08.816Z,29.87
2019-03-31T07:39:36.731Z,26.90
2019-03-31T07:42:04.615Z,28.30
2019-03-31T07:44:32.579Z,26.97
2019-03-31T07:47:00.255Z,25.70
2019-03-31T07:49:27.950Z,29.27
2019-03-31T07:51:55.635Z,26.20
2019-03-31T07:54:23.291Z,31.53
2019-03-31T07:56:50.953Z,27.20
2019-03-31T07:59:19.528Z,34.20
2019-03-31T08:01:47.183Z,31.67
2019-03-31T08:04:14.845Z,35.73
2019-03-31T08:06:42.503Z,34.73
2019-03-31T08:09:10.171Z,30.00
2019-03-31T08:11:38.035Z,35.10
2019-03-31T08:14:05.820Z,41.50
2019-03-31T08:16:33.491Z,33.03
2019-03-31T08:19:01.203Z,37.77
2019-03-31T08:21:28.868Z,29.87
2019-03-31T08:23:56.542Z,38.87
2019-03-31T08:26:24.221Z,36.97
2019-03-31T08:28:51.884Z,40.00
2019-03-31T08:31:19.563Z,35.57
2019-03-31T08:33:47.380Z,37.17
2019-03-31T08:36:15.086Z,38.47
2019-03-31T08:38:42.825Z,36.73
2019-03-31T08:41:10.481Z,36.10
2019-03-31T08:43:38.234Z,37.67
2019-03-31T08:46:06.033Z,42.90
2019-03-31T08:48:33.687Z,39.27
2019-03-31T08:55:53.227Z,37.40
2019-03-31T09:00:52.116Z,33.83
2019-03-31T09:05:45.773Z,41.93
2019-03-31T09:08:13.889Z,39.40
2019-03-31T09:10:41.546Z,37.37
2019-03-31T09:13:09.216Z,35.30
2019-03-31T09:15:37.057Z,37.70
2019-03-31T09:18:04.804Z,34.57
2019-03-31T09:20:32.471Z,33.23
2019-03-31T09:23:00.139Z,33.43
2019-03-31T09:25:27.937Z,33.53
2019-03-31T09:27:55.611Z,35.30
2019-03-31T09:30:23.276Z,37.80
2019-03-31T09:35:17.057Z,35.40
2019-03-31T09:37:44.718Z,36.70
2019-03-31T09:40:12.415Z,34.03
2019-03-31T09:45:06.127Z,38.33
2019-03-31T09:47:33.803Z,38.70
2019-03-31T09:50:01.508Z,42.90
2019-03-31T09:52:29.167Z,39.47
2019-03-31T09:54:56.844Z,38.23
2019-03-31T09:57:24.504Z,37.47
2019-03-31T09:59:52.176Z,39.17
2019-03-31T10:02:19.839Z,38.17
2019-03-31T10:04:47.511Z,41.30
2019-03-31T10:07:15.175Z,39.83
2019-03-31T10:09:42.845Z,43.80
2019-03-31T10:12:10.502Z,39.37
2019-03-31T10:14:38.196Z,41.47
2019-03-31T10:17:05.847Z,44.43
2019-03-31T10:19:33.580Z,43.13
2019-03-31T10:22:01.244Z,41.10
2019-03-31T10:24:28.911Z,37.47
2019-03-31T10:26:56.576Z,40.40
2019-03-31T10:29:24.268Z,37.20
2019-03-31T10:31:52.167Z,42.33
2019-03-31T10:34:19.791Z,41.83
2019-03-31T10:36:47.448Z,46.63
2019-03-31T10:39:15.137Z,47.37
2019-03-31T10:41:42.908Z,48.17
2019-03-31T10:44:10.570Z,44.53
2019-03-31T10:46:38.247Z,46.60
2019-03-31T10:49:05.922Z,45.87
2019-03-31T10:51:34.158Z,45.70
2019-03-31T10:54:04.564Z,44.97
2019-03-31T10:56:31.345Z,47.57
2019-03-31T10:58:59.053Z,48.43
2019-03-31T11:03:52.643Z,47.97
2019-03-31T11:06:20.310Z,43.93
2019-03-31T11:08:47.979Z,43.27
2019-03-31T11:11:15.639Z,46.23
2019-03-31T11:13:43.423Z,44.40
2019-03-31T11:16:11.096Z,41.43
2019-03-31T11:18:38.755Z,51.97
2019-03-31T11:21:13.070Z,46.97
2019-03-31T11:23:40.736Z,45.10
2019-03-31T11:26:08.600Z,43.80
2019-03-31T11:28:36.261Z,44.73
2019-03-31T11:31:03.923Z,42.77
2019-03-31T11:33:31.584Z,42.33
2019-03-31T11:35:59.254Z,43.83
2019-03-31T11:38:26.923Z,45.53
2019-03-31T11:40:54.583Z,43.27
2019-03-31T11:43:22.336Z,45.80
2019-03-31T11:45:50.170Z,49.63
2019-03-31T11:48:17.844Z,46.47
2019-03-31T11:50:45.513Z,50.20
2019-03-31T11:53:13.186Z,44.00
2019-03-31T11:55:40.852Z,47.30
2019-03-31T11:58:08.525Z,44.97
2019-03-31T12:00:40.788Z,42.20
2019-03-31T12:03:08.452Z,46.53
2019-03-31T12:05:36.403Z,47.10
2019-03-31T12:08:04.136Z,46.70
2019-03-31T12:10:31.802Z,47.30
2019-03-31T12:12:59.462Z,49.20
2019-03-31T12:15:27.154Z,42.70
2019-03-31T12:17:54.832Z,47.13
2019-03-31T12:20:22.508Z,47.80
2019-03-31T12:22:50.159Z,43.13
2019-03-31T12:25:19.804Z,51.17
2019-03-31T12:27:47.240Z,47.17
2019-03-31T12:30:14.928Z,46.20
2019-03-31T12:32:42.590Z,49.97
2019-03-31T12:35:10.260Z,43.20
2019-03-31T12:37:42.643Z,44.03
2019-03-31T12:40:07.330Z,42.33
2019-03-31T12:42:34.997Z,46.47
2019-03-31T12:45:02.700Z,40.47
2019-03-31T12:47:31.091Z,38.30
2019-03-31T12:49:58.754Z,40.97
2019-03-31T12:52:26.415Z,35.60
2019-03-31T12:54:54.166Z,33.13
2019-03-31T12:57:22.228Z,30.70
2019-03-31T12:59:49.959Z,40.93
2019-03-31T13:02:17.617Z,36.73
2019-03-31T13:04:45.279Z,31.27
2019-03-31T13:07:14.919Z,20.37
2019-03-31T13:09:42.492Z,20.43
2019-03-31T13:12:10.227Z,21.43
2019-03-31T13:14:37.889Z,20.13
2019-03-31T13:17:05.696Z,25.93
2019-03-31T13:19:33.418Z,20.90
2019-03-31T13:22:01.121Z,21.70
2019-03-31T13:24:28.803Z,21.90
2019-03-31T13:26:56.463Z,19.20
2019-03-31T13:29:24.137Z,25.20
2019-03-31T13:31:51.795Z,21.73
2019-03-31T13:34:19.458Z,25.53
2019-03-31T13:36:47.121Z,24.23
2019-03-31T13:39:14.776Z,23.80
2019-03-31T13:41:42.439Z,22.90
2019-03-31T13:44:10.104Z,22.53
2019-03-31T13:46:37.755Z,21.93
2019-03-31T13:49:05.423Z,27.67
2019-03-31T13:51:33.362Z,25.23
2019-03-31T13:54:01.046Z,26.30
2019-03-31T13:56:29.553Z,29.63
2019-03-31T13:58:57.824Z,30.13
2019-03-31T14:01:25.492Z,27.53
2019-03-31T14:03:53.234Z,27.33
2019-03-31T14:06:21.495Z,26.77
2019-03-31T14:08:49.155Z,31.97
2019-03-31T14:11:16.812Z,29.47
2019-03-31T14:13:44.479Z,33.87
2019-03-31T14:16:12.157Z,28.93
2019-03-31T14:18:39.827Z,30.00
2019-03-31T14:21:07.493Z,28.90
2019-03-31T14:23:35.167Z,30.97
2019-03-31T14:26:02.844Z,26.57
2019-03-31T14:28:30.543Z,31.57
2019-03-31T14:30:58.201Z,31.60
2019-03-31T14:33:25.851Z,31.00
2019-03-31T14:35:53.567Z,26.93
2019-03-31T14:38:21.309Z,31.07
2019-03-31T14:40:49.150Z,28.03
2019-03-31T14:43:16.864Z,28.07
2019-03-31T14:45:44.535Z,25.07
2019-03-31T14:48:12.198Z,25.67
2019-03-31T14:50:40.000Z,24.10
2019-03-31T14:53:07.676Z,23.77
2019-03-31T14:55:35.346Z,24.07
2019-03-31T14:58:03.010Z,28.17
2019-03-31T15:00:30.679Z,27.80
2019-03-31T15:02:58.347Z,26.27
2019-03-31T15:05:26.135Z,27.87
2019-03-31T15:07:53.894Z,28.80
2019-03-31T15:10:21.563Z,26.90
2019-03-31T15:12:49.235Z,26.10
2019-03-31T15:15:16.981Z,21.20
2019-03-31T15:17:44.647Z,26.90
2019-03-31T15:20:12.398Z,26.13
2019-03-31T15:22:40.064Z,26.00
2019-03-31T15:25:07.746Z,24.83
2019-03-31T15:27:35.419Z,27.33
2019-03-31T15:30:03.076Z,22.20
2019-03-31T15:32:30.739Z,21.67
2019-03-31T15:34:58.399Z,22.53
2019-03-31T15:37:26.149Z,21.90
2019-03-31T15:39:53.807Z,22.50
2019-03-31T15:42:21.832Z,22.90
2019-03-31T15:44:49.519Z,23.97
2019-03-31T15:47:17.188Z,24.60
2019-03-31T15:49:44.852Z,27.33
2019-03-31T15:52:12.539Z,22.87
2019-03-31T15:54:40.205Z,21.70
2019-03-31T15:57:07.865Z,22.40
2019-03-31T15:59:35.980Z,18.07
2019-03-31T16:02:03.664Z,22.30
2019-03-31T16:04:31.335Z,16.43
2019-03-31T16:06:59.002Z,20.50
2019-03-31T16:09:26.665Z,21.67
2019-03-31T16:11:54.397Z,18.77
2019-03-31T16:14:22.093Z,17.67
2019-03-31T16:16:49.759Z,13.53
2019-03-31T16:19:17.430Z,13.23
2019-03-31T16:21:45.103Z,13.13
2019-03-31T16:24:12.778Z,11.83
2019-03-31T16:26:40.459Z,12.80
2019-03-31T16:29:08.124Z,11.13
2019-03-31T16:31:35.807Z,10.93
2019-03-31T16:34:03.476Z,12.10
2019-03-31T16:36:31.147Z,10.30
2019-03-31T16:38:58.835Z,12.23
2019-03-31T16:41:26.488Z,15.63
2019-03-31T16:43:54.150Z,9.03
2019-03-31T16:46:21.811Z,15.33
2019-03-31T16:48:49.538Z,12.70
2019-03-31T16:51:17.196Z,11.87
2019-03-31T16:53:44.851Z,11.33
2019-03-31T16:56:12.512Z,8.27
2019-03-31T16:58:40.209Z,11.17
2019-03-31T17:01:07.856Z,9.77
2019-03-31T17:03:35.607Z,9.40
2019-03-31T17:06:03.268Z,8.43
2019-03-31T17:10:56.884Z,7.10
2019-03-31T17:15:50.474Z,9.13
2019-03-31T17:18:18.144Z,7.30
2019-03-31T17:20:45.800Z,9.07
2019-03-31T17:23:13.455Z,6.93
2019-03-31T17:25:41.130Z,9.20
2019-03-31T17:28:10.334Z,7.47
2019-03-31T17:33:04.148Z,6.27
2019-03-31T17:35:31.800Z,10.03
2019-03-31T17:37:59.476Z,7.90
2019-03-31T17:40:27.120Z,6.87
2019-03-31T17:42:54.767Z,5.67
2019-03-31T17:45:22.446Z,5.40
2019-03-31T17:47:50.099Z,6.13
2019-03-31T17:50:17.768Z,7.20
2019-03-31T17:52:45.431Z,5.30
2019-03-31T17:55:13.079Z,4.07
2019-03-31T17:57:42.433Z,6.57
2019-03-31T18:02:36.035Z,5.53
2019-03-31T18:07:29.615Z,6.67
2019-03-31T18:09:57.300Z,5.30
2019-03-31T18:12:24.991Z,5.37
2019-03-31T18:14:52.637Z,5.67
2019-03-31T18:17:20.423Z,6.10
2019-03-31T18:19:48.079Z,5.10
2019-03-31T18:22:16.961Z,4.90
2019-03-31T18:24:44.940Z,5.27
2019-03-31T18:27:12.618Z,5.23
2019-03-31T18:29:40.268Z,7.70
2019-03-31T18:32:07.919Z,4.77
2019-03-31T18:34:35.602Z,5.77
2019-03-31T18:37:03.280Z,4.53
2019-03-31T18:39:30.941Z,6.77
2019-03-31T18:41:58.576Z,4.30
2019-03-31T18:44:26.223Z,4.60
2019-03-31T18:46:53.875Z,7.13
2019-03-31T18:49:21.527Z,6.60
2019-03-31T18:51:49.181Z,6.23
2019-03-31T18:54:25.290Z,6.47
2019-03-31T18:56:59.355Z,6.80
2019-03-31T18:59:37.305Z,8.97
2019-03-31T19:02:18.896Z,8.20
2019-03-31T19:04:56.520Z,7.30
2019-03-31T19:07:35.944Z,8.73
2019-03-31T19:10:24.677Z,5.73
2019-03-31T19:12:49.835Z,8.37
2019-03-31T19:15:22.782Z,8.43
2019-03-31T19:18:09.502Z,8.10
2019-03-31T19:20:47.102Z,7.77
2019-03-31T19:23:31.049Z,6.97
2019-03-31T19:26:04.016Z,8.00
2019-03-31T19:28:41.971Z,6.07
2019-03-31T19:31:17.481Z,6.37
2019-03-31T19:33:50.408Z,6.33
2019-03-31T19:36:28.369Z,6.77
2019-03-31T19:39:08.999Z,6.43
2019-03-31T19:41:41.991Z,7.37
2019-03-31T19:44:17.803Z,6.70
2019-03-31T19:46:53.136Z,5.57
2019-03-31T19:49:29.294Z,6.10
2019-03-31T19:52:06.781Z,9.03
2019-03-31T19:54:45.951Z,7.40
2019-03-31T19:57:35.676Z,7.00
2019-03-31T20:00:14.317Z,7.53
2019-03-31T20:02:52.885Z,6.23
2019-03-31T20:05:25.816Z,10.50
2019-03-31T20:08:08.899Z,7.00
2019-03-31T20:10:43.715Z,8.10
2019-03-31T20:13:22.809Z,10.47
2019-03-31T20:16:08.207Z,7.27
2019-03-31T20:18:42.925Z,7.40
2019-03-31T20:21:32.115Z,9.27
2019-03-31T20:24:04.344Z,7.27
2019-03-31T20:26:43.071Z,8.13
2019-03-31T20:29:17.284Z,8.67
2019-03-31T20:31:58.660Z,8.87
2019-03-31T20:34:34.107Z,9.73
2019-03-31T20:37:19.283Z,8.13
2019-03-31T20:40:05.536Z,10.20
2019-03-31T20:42:53.256Z,8.87
2019-03-31T21:02:23.128Z,9.90
2019-03-31T21:04:50.808Z,10.07
2019-03-31T21:07:18.494Z,9.93
2019-03-31T21:09:46.154Z,11.17
2019-03-31T21:12:13.920Z,9.87
2019-03-31T21:14:41.576Z,8.40
2019-03-31T21:17:09.225Z,11.10
2019-03-31T21:19:36.938Z,11.23
2019-03-31T21:22:04.588Z,13.03
2019-03-31T21:24:32.255Z,10.50
2019-03-31T21:26:59.903Z,10.93
2019-03-31T21:29:27.556Z,8.47
2019-03-31T21:31:55.199Z,7.53
2019-03-31T21:34:22.850Z,7.70
2019-03-31T21:36:50.495Z,9.37
2019-03-31T21:39:18.152Z,8.73
2019-03-31T21:41:45.807Z,12.77
2019-03-31T21:44:13.462Z,8.03
2019-03-31T21:46:41.110Z,10.77
2019-03-31T21:49:08.783Z,10.73
2019-03-31T21:51:36.445Z,10.30
2019-03-31T21:54:04.108Z,6.87
2019-03-31T21:56:31.750Z,8.73
2019-03-31T21:58:59.398Z,6.77
2019-03-31T22:01:27.036Z,8.23
2019-03-31T22:03:54.691Z,6.83
2019-03-31T22:06:22.327Z,7.83
2019-03-31T22:08:49.984Z,7.53
2019-03-31T22:11:17.655Z,9.30
2019-03-31T22:13:45.315Z,7.73
2019-03-31T22:16:13.030Z,7.83
2019-03-31T22:18:41.300Z,8.77
2019-03-31T22:21:09.247Z,6.87
2019-03-31T22:23:36.949Z,10.00
2019-03-31T22:26:04.604Z,12.40
2019-03-31T22:28:32.362Z,9.77
2019-03-31T22:31:00.095Z,10.07
2019-03-31T22:33:27.745Z,8.20
2019-03-31T22:36:00.746Z,6.40
2019-03-31T22:38:28.393Z,9.43
2019-03-31T22:40:56.191Z,9.53
2019-03-31T22:43:23.828Z,7.87
2019-03-31T22:45:51.475Z,7.27
2019-03-31T22:48:19.254Z,9.20
2019-03-31T22:50:46.891Z,7.47
2019-03-31T22:53:14.552Z,9.97
2019-03-31T22:55:42.196Z,5.57
2019-03-31T22:58:10.019Z,7.83
2019-03-31T23:00:37.762Z,7.73
2019-03-31T23:03:05.548Z,5.93
2019-03-31T23:05:33.247Z,6.70
2019-03-31T23:08:00.883Z,9.00
2019-03-31T23:10:28.535Z,7.53
2019-03-31T23:12:56.191Z,10.17
2019-03-31T23:15:23.844Z,7.20
2019-03-31T23:17:51.512Z,9.20
2019-03-31T23:20:19.171Z,11.10
2019-03-31T23:22:46.851Z,7.33
2019-03-31T23:25:14.901Z,9.10
2019-03-31T23:27:42.614Z,5.83
2019-03-31T23:30:11.154Z,9.33
2019-03-31T23:32:38.815Z,9.97
2019-03-31T23:35:06.608Z,9.30
2019-03-31T23:37:34.463Z,9.60
2019-03-31T23:40:02.303Z,8.33
2019-03-31T23:42:29.955Z,5.97
2019-03-31T23:44:57.606Z,7.30
2019-03-31T23:47:25.247Z,7.33
2019-03-31T23:49:52.892Z,8.13
2019-03-31T23:52:20.547Z,7.67
2019-03-31T23:54:48.191Z,4.40
2019-03-31T23:57:15.959Z,6.77
2019-03-31T23:59:43.899Z,6.63
